Time;durP1;ratioP1;P1;durP2;ratioP2;P2;SDS_P1;SDS_P2;PMS_P1;PMS_P2;Temp;Humidity;BMP_temperature;BMP_pressure;BME280_temperature;BME280_humidity;BME280_pressure;Samples;Min_cycle;Max_cycle;Signal;HPM_P1;HPM_P2
2021/12/13 00:02:57;;;;;;;15.00;7.40;;;;;;;4.14;95.09;97631.09;1713182;83;21518;-74
2021/12/13 00:05:41;;;;;;;14.87;8.33;;;;;;;4.12;94.96;97628.95;1712197;84;21056;-75
2021/12/13 00:08:13;;;;;;;11.48;7.12;;;;;;;4.14;95.02;97630.22;1735153;82;21019;-75
2021/12/13 00:10:45;;;;;;;11.95;6.92;;;;;;;4.11;94.69;97627.64;1731878;80;21020;-75
2021/12/13 00:13:17;;;;;;;11.50;7.28;;;;;;;4.08;94.81;97625.45;1713083;83;21474;-75
2021/12/13 00:15:51;;;;;;;14.73;8.33;;;;;;;4.00;94.86;97643.04;1713538;83;21148;-74
2021/12/13 00:18:23;;;;;;;13.15;7.55;;;;;;;4.00;94.90;97646.09;1713566;84;21041;-74
2021/12/13 00:20:55;;;;;;;13.95;7.80;;;;;;;3.96;95.25;97647.88;1714128;81;21013;-74
2021/12/13 00:23:30;;;;;;;10.75;6.58;;;;;;;3.96;95.30;97650.50;1718374;83;21128;-75
2021/12/13 00:26:01;;;;;;;12.98;7.75;;;;;;;3.96;95.33;97657.05;1742089;80;20988;-74
2021/12/13 00:28:32;;;;;;;13.95;7.55;;;;;;;4.01;95.36;97656.57;1731531;81;20981;-73
2021/12/13 00:31:25;;;;;;;14.07;7.72;;;;;;;4.06;95.43;97664.38;1754242;82;20997;-74
2021/12/13 00:34:35;;;;;;;10.48;6.85;;;;;;;4.11;95.39;97666.52;1754382;82;21004;-74
2021/12/13 00:37:18;;;;;;;14.15;8.10;;;;;;;4.14;95.70;97665.62;1754749;82;21033;-73
2021/12/13 00:39:53;;;;;;;15.43;8.15;;;;;;;4.25;95.90;97682.59;1729688;82;21469;-73
2021/12/13 00:42:23;;;;;;;12.33;7.33;;;;;;;4.31;95.81;97683.40;1755196;80;20950;-73
2021/12/13 00:44:54;;;;;;;14.93;8.48;;;;;;;4.33;95.15;97677.69;1754774;82;20936;-73
2021/12/13 00:47:29;;;;;;;13.62;7.70;;;;;;;4.31;95.12;97686.02;1754808;82;21012;-73
2021/12/13 00:50:01;;;;;;;13.55;7.95;;;;;;;4.31;94.70;97695.64;1768216;80;20988;-73
2021/12/13 00:52:31;;;;;;;14.65;8.25;;;;;;;4.33;95.20;97696.05;1786231;80;21036;-73
2021/12/13 00:55:00;;;;;;;11.53;7.45;;;;;;;4.34;95.08;97703.06;1786385;80;21450;-73
2021/12/13 00:57:37;;;;;;;16.07;8.55;;;;;;;4.34;95.20;97699.55;1786232;80;21012;-73
2021/12/13 01:00:15;;;;;;;12.80;8.00;;;;;;;4.30;94.62;97697.41;1727517;80;20996;-73
2021/12/13 01:02:54;;;;;;;16.70;8.70;;;;;;;4.32;94.95;97705.27;1724044;83;21045;-74
2021/12/13 01:05:47;;;;;;;13.85;8.03;;;;;;;4.30;94.88;97700.46;1724960;83;21051;-73
2021/12/13 01:08:33;;;;;;;17.55;8.30;;;;;;;4.25;94.29;97698.33;1675637;83;21012;-74
2021/12/13 01:11:40;;;;;;;13.88;9.05;;;;;;;4.18;94.23;97710.19;1723327;83;21068;-73
2021/12/13 01:14:28;;;;;;;13.48;8.00;;;;;;;4.14;94.52;97701.91;1723399;83;21001;-73
2021/12/13 01:17:05;;;;;;;15.32;9.48;;;;;;;4.14;94.62;97704.97;1772966;80;20988;-73
2021/12/13 01:19:49;;;;;;;14.30;9.23;;;;;;;4.13;94.73;97707.16;1785892;80;20981;-73
2021/12/13 01:22:42;;;;;;;16.42;9.25;;;;;;;4.12;94.63;97712.88;1786348;80;21036;-74
2021/12/13 01:28:14;;;;;;;16.93;8.98;;;;;;;4.07;94.06;97718.59;1768698;80;21016;-73
2021/12/13 01:30:50;;;;;;;17.05;9.53;;;;;;;3.99;94.01;97714.73;1791403;80;21032;-73
2021/12/13 01:33:19;;;;;;;15.10;8.55;;;;;;;3.94;93.96;97714.74;1777085;80;21418;-73
2021/12/13 01:35:49;;;;;;;18.55;9.10;;;;;;;3.92;94.39;97716.95;1757203;82;21012;-73
2021/12/13 01:38:32;;;;;;;16.40;9.68;;;;;;;3.91;94.19;97715.21;1727492;82;21426;-73
2021/12/13 01:40:54;;;;;;;17.70;9.30;;;;;;;3.88;94.08;97715.23;1756012;82;21452;-73
2021/12/13 01:43:26;;;;;;;17.45;9.70;;;;;;;3.86;94.10;97721.78;1757332;81;21457;-73
2021/12/13 01:45:55;;;;;;;15.25;8.73;;;;;;;3.83;94.05;97721.83;1756599;81;21478;-73
2021/12/13 01:48:27;;;;;;;15.00;8.13;;;;;;;3.76;94.11;97726.66;1757360;81;21017;-73
2021/12/13 01:51:05;;;;;;;13.70;7.87;;;;;;;3.72;94.17;97720.58;1780319;80;20984;-73
2021/12/13 01:53:41;;;;;;;13.25;8.40;;;;;;;3.72;94.50;97728.87;1790387;80;21469;-73
2021/12/13 01:56:39;;;;;;;16.05;8.00;;;;;;;3.74;94.60;97726.67;1775623;80;20988;-73
2021/12/13 01:59:17;;;;;;;14.58;7.60;;;;;;;3.74;94.23;97731.91;1789299;80;21430;-73
2021/12/13 02:01:37;;;;;;;14.00;7.67;;;;;;;3.70;94.31;97730.22;1789869;80;21019;-73
2021/12/13 02:04:10;;;;;;;12.07;6.67;;;;;;;3.68;94.13;97731.95;1791347;80;21033;-73
2021/12/13 02:06:44;;;;;;;11.33;6.58;;;;;;;3.65;94.28;97731.53;1789785;80;21042;-73
2021/12/13 02:09:24;;;;;;;13.25;7.60;;;;;;;3.60;94.52;97731.13;1757607;82;21570;-73
2021/12/13 02:11:56;;;;;;;12.13;7.20;;;;;;;3.58;94.27;97725.91;1757520;82;20990;-73
2021/12/13 02:14:29;;;;;;;10.70;7.22;;;;;;;3.61;94.09;97723.72;1757309;81;20991;-73
2021/12/13 02:17:10;;;;;;;12.28;7.20;;;;;;;3.63;94.21;97731.11;1757141;81;21010;-73
2021/12/13 02:19:54;;;;;;;12.78;6.87;;;;;;;3.63;94.16;97727.19;1757084;82;20980;-73
2021/12/13 02:22:42;;;;;;;11.77;6.73;;;;;;;3.62;94.29;97728.07;1757479;82;21440;-73
2021/12/13 02:25:30;;;;;;;12.63;7.05;;;;;;;3.62;94.27;97732.88;1781200;80;20985;-74
2021/12/13 02:28:17;;;;;;;10.05;6.37;;;;;;;3.66;94.48;97729.34;1791099;80;21487;-73
2021/12/13 02:30:58;;;;;;;12.03;6.60;;;;;;;3.63;94.00;97731.11;1791508;80;21048;-73
2021/12/13 02:33:30;;;;;;;10.98;6.85;;;;;;;3.69;94.40;97729.76;1791223;80;21402;-73
2021/12/13 02:36:02;;;;;;;10.25;7.25;;;;;;;3.74;94.48;97726.67;1790363;80;21028;-73
2021/12/13 02:38:29;;;;;;;10.63;6.90;;;;;;;3.75;93.54;97733.67;1789991;80;21025;-74
2021/12/13 02:40:56;;;;;;;10.95;6.50;;;;;;;3.72;92.67;97738.04;1785038;80;21020;-73
2021/12/13 02:43:30;;;;;;;8.73;6.25;;;;;;;3.73;92.45;97737.19;1719379;83;20996;-73
2021/12/13 02:45:59;;;;;;;9.95;6.85;;;;;;;3.76;93.28;97743.27;1719466;83;21725;-73
2021/12/13 02:48:49;;;;;;;8.30;6.17;;;;;;;3.80;93.54;97748.93;1719162;83;21024;-73
2021/12/13 02:51:35;;;;;;;10.85;6.53;;;;;;;3.80;93.33;97749.36;1719860;80;21005;-73
2021/12/13 02:54:16;;;;;;;10.03;6.00;;;;;;;3.75;92.97;97752.02;1719217;83;21003;-73
2021/12/13 02:56:47;;;;;;;9.33;5.90;;;;;;;3.70;92.15;97755.11;1719283;83;21008;-73
2021/12/13 02:59:15;;;;;;;11.22;6.55;;;;;;;3.54;91.99;97768.73;1756534;80;20969;-74
2021/12/13 03:01:50;;;;;;;9.70;6.22;;;;;;;3.44;92.40;97763.96;1791045;80;21013;-73
2021/12/13 03:04:21;;;;;;;11.45;6.45;;;;;;;3.43;92.66;97763.53;1791217;80;21044;-74
2021/12/13 03:07:02;;;;;;;8.60;6.15;;;;;;;3.42;92.91;97760.48;1790610;80;21047;-73
2021/12/13 03:09:32;;;;;;;9.60;6.37;;;;;;;3.37;92.79;97761.80;1791337;80;20942;-73
2021/12/13 03:12:02;;;;;;;10.40;6.70;;;;;;;3.31;92.97;97764.45;1791407;80;20969;-73
2021/12/13 03:14:34;;;;;;;9.85;6.85;;;;;;;3.27;92.92;97759.67;1791417;80;21406;-73
2021/12/13 03:17:27;;;;;;;8.83;6.10;;;;;;;3.27;93.20;97760.10;1725737;80;21028;-73
2021/12/13 03:20:23;;;;;;;10.68;6.50;;;;;;;3.27;93.47;97766.23;1719285;83;20993;-73
2021/12/13 03:23:31;;;;;;;9.40;6.12;;;;;;;3.21;93.75;97764.06;1692699;84;21036;-73
2021/12/13 03:26:41;;;;;;;11.00;6.97;;;;;;;3.17;93.54;97765.83;1717978;83;21516;-73
2021/12/13 03:29:19;;;;;;;11.80;7.08;;;;;;;3.13;93.64;97779.38;1718967;82;21092;-73
2021/12/13 03:31:50;;;;;;;14.13;7.53;;;;;;;3.14;93.64;97771.06;1719855;80;21043;-73
2021/12/13 03:34:28;;;;;;;11.08;6.58;;;;;;;3.16;93.58;97775.87;1791284;80;20996;-73
2021/12/13 03:37:16;;;;;;;16.85;7.00;;;;;;;3.18;93.51;97774.11;1790911;80;21696;-74
2021/12/13 03:39:57;;;;;;;14.15;7.62;;;;;;;3.19;93.37;97783.70;1791291;80;21012;-73
2021/12/13 03:42:34;;;;;;;14.30;8.10;;;;;;;3.14;93.12;97787.66;1791314;80;21004;-73
2021/12/13 03:45:09;;;;;;;12.25;7.30;;;;;;;3.15;93.42;97797.68;1789224;80;21084;-73
2021/12/13 03:47:40;;;;;;;13.15;7.58;;;;;;;3.12;93.90;97800.33;1790991;80;21492;-73
2021/12/13 03:50:12;;;;;;;12.25;7.72;;;;;;;3.13;93.88;97793.78;1772219;80;20979;-73
2021/12/13 03:52:43;;;;;;;12.88;7.33;;;;;;;3.09;93.71;97802.94;1757458;80;20984;-73
2021/12/13 03:55:14;;;;;;;12.82;7.60;;;;;;;3.09;93.57;97796.39;1757379;82;20959;-73
2021/12/13 03:57:46;;;;;;;13.55;7.40;;;;;;;3.09;93.48;97805.56;1757075;82;21007;-73
2021/12/13 04:00:18;;;;;;;14.87;8.78;;;;;;;3.06;93.49;97802.52;1757249;82;20971;-73
2021/12/13 04:02:47;;;;;;;14.68;7.83;;;;;;;3.01;93.59;97809.09;1757214;82;21378;-73
2021/12/13 04:05:18;;;;;;;11.95;7.55;;;;;;;2.97;93.61;97806.03;1762478;81;21008;-73
2021/12/13 04:07:50;;;;;;;14.33;7.35;;;;;;;2.93;93.48;97799.05;1758104;80;20952;-73
2021/12/13 04:10:28;;;;;;;11.63;6.87;;;;;;;2.91;93.74;97808.67;1755847;81;21433;-73
2021/12/13 04:13:00;;;;;;;10.50;6.70;;;;;;;2.95;93.60;97802.53;1756703;81;21054;-73
2021/12/13 04:15:53;;;;;;;11.00;6.55;;;;;;;2.99;93.66;97800.34;1757019;82;21003;-73
2021/12/13 04:18:26;;;;;;;10.20;6.12;;;;;;;3.06;93.97;97800.35;1752242;82;21487;-73
2021/12/13 04:20:44;;;;;;;10.45;5.83;;;;;;;3.13;94.05;97799.45;1754185;81;21122;-73
2021/12/13 04:23:16;;;;;;;10.45;5.95;;;;;;;3.14;93.21;97803.80;1747350;80;21020;-73
2021/12/13 04:25:47;;;;;;;10.75;6.15;;;;;;;3.17;93.26;97795.48;1719055;83;21028;-73
2021/12/13 04:28:28;;;;;;;8.93;5.62;;;;;;;3.21;93.46;97800.73;1719129;82;20985;-73
2021/12/13 04:31:00;;;;;;;10.80;5.87;;;;;;;3.26;93.69;97805.52;1717178;83;21040;-73
2021/12/13 04:33:32;;;;;;;11.20;6.20;;;;;;;3.32;93.76;97800.70;1719082;83;21522;-73
2021/12/13 04:36:03;;;;;;;10.90;6.33;;;;;;;3.35;92.93;97803.29;1719144;83;21008;-73
2021/12/13 04:38:52;;;;;;;11.93;6.42;;;;;;;3.32;91.84;97798.08;1719114;83;21025;-73
2021/12/13 04:41:36;;;;;;;10.10;6.55;;;;;;;3.34;92.77;97792.39;1766721;80;21397;-74
2021/12/13 04:44:11;;;;;;;13.25;7.17;;;;;;;3.28;92.00;97798.54;1791459;80;21414;-74
2021/12/13 04:46:41;;;;;;;11.30;7.47;;;;;;;3.25;92.39;97800.73;1788569;80;21036;-74
2021/12/13 04:49:15;;;;;;;10.15;6.60;;;;;;;3.26;92.54;97806.82;1791498;80;21076;-74
2021/12/13 04:51:55;;;;;;;11.40;7.17;;;;;;;3.26;92.67;97806.39;1762846;80;20984;-74
2021/12/13 04:54:26;;;;;;;12.43;7.20;;;;;;;3.17;91.31;97801.19;1791074;80;21021;-74
2021/12/13 04:56:54;;;;;;;9.88;6.83;;;;;;;3.14;92.00;97794.20;1790124;80;20992;-74
2021/12/13 04:59:23;;;;;;;14.00;7.00;;;;;;;3.16;92.20;97795.06;1727116;83;21115;-74
2021/12/13 05:01:54;;;;;;;9.65;6.67;;;;;;;3.14;92.13;97795.52;1727172;83;21382;-74
2021/12/13 05:04:23;;;;;;;11.85;7.33;;;;;;;3.12;91.93;97805.56;1727074;83;21513;-74
2021/12/13 05:06:53;;;;;;;11.80;7.40;;;;;;;3.10;92.03;97807.30;1748563;80;20995;-74
2021/12/13 05:09:23;;;;;;;14.13;8.08;;;;;;;3.04;91.88;97799.89;1757101;82;21373;-73
2021/12/13 05:11:58;;;;;;;13.38;8.28;;;;;;;3.00;91.67;97800.77;1757212;82;20932;-73
2021/12/13 05:14:46;;;;;;;13.72;8.28;;;;;;;2.94;91.28;97802.10;1757835;80;21047;-73
2021/12/13 05:17:23;;;;;;;16.00;8.33;;;;;;;2.92;91.69;97803.86;1791396;80;20973;-73
2021/12/13 05:20:01;;;;;;;12.60;7.62;;;;;;;2.90;91.78;97806.91;1791415;80;21350;-73
2021/12/13 05:22:29;;;;;;;13.55;7.55;;;;;;;2.86;91.81;97807.81;1791147;80;21006;-73
2021/12/13 05:25:02;;;;;;;11.90;7.83;;;;;;;2.86;91.94;97809.12;1791351;80;21003;-73
2021/12/13 05:27:37;;;;;;;13.40;8.28;;;;;;;2.88;91.94;97815.21;1763478;80;21381;-73
2021/12/13 05:30:12;;;;;;;12.25;7.35;;;;;;;2.88;91.83;97820.02;1747735;80;21064;-73
2021/12/13 05:32:46;;;;;;;13.65;8.58;;;;;;;2.87;91.96;97820.87;1745406;82;21037;-73
2021/12/13 05:35:33;;;;;;;13.83;8.25;;;;;;;2.81;91.90;97825.23;1747310;82;20980;-73
2021/12/13 05:38:08;;;;;;;14.75;8.70;;;;;;;2.77;92.18;97833.53;1747235;82;21017;-73
2021/12/13 05:40:40;;;;;;;;;;;;;;;2.78;92.25;97828.73;1749896;82;21533;-73
2021/12/13 05:43:31;;;;;;;14.23;8.45;;;;;;;2.79;92.19;97836.16;1747118;82;20107;-73
2021/12/13 05:46:08;;;;;;;14.53;8.03;;;;;;;2.80;92.19;97841.39;1741128;82;21024;-73
2021/12/13 05:48:46;;;;;;;13.28;7.85;;;;;;;2.80;91.92;97846.63;1747094;82;21000;-73
2021/12/13 05:51:43;;;;;;;13.22;7.03;;;;;;;2.75;91.72;97851.84;1745185;82;21005;-73
2021/12/13 05:54:23;;;;;;;14.53;7.72;;;;;;;2.76;91.99;97857.55;1747274;82;21032;-73
2021/12/13 05:56:55;;;;;;;13.70;6.97;;;;;;;2.75;91.92;97854.92;1747296;82;21052;-73
2021/12/13 05:59:32;;;;;;;11.57;6.83;;;;;;;2.69;91.71;97858.41;1747221;82;21047;-73
2021/12/13 06:02:19;;;;;;;12.65;7.17;;;;;;;2.72;91.96;97854.91;1742112;82;21020;-72
2021/12/13 06:05:03;;;;;;;12.33;7.55;;;;;;;2.74;91.72;97861.89;1727215;82;21044;-73
2021/12/13 06:07:34;;;;;;;12.78;7.15;;;;;;;2.78;91.86;97865.38;1747309;82;21430;-73
2021/12/13 06:10:18;;;;;;;12.07;7.20;;;;;;;2.83;91.98;97869.31;1747408;82;21261;-73
2021/12/13 06:12:56;;;;;;;12.20;7.17;;;;;;;2.90;92.05;97874.96;1729204;82;21037;-73
2021/12/13 06:15:36;;;;;;;12.58;7.22;;;;;;;2.87;91.17;97874.98;1728357;82;20997;-73
2021/12/13 06:18:20;;;;;;;12.68;7.03;;;;;;;2.86;91.37;97877.17;1747053;82;21067;-73
2021/12/13 06:21:35;;;;;;;13.80;7.70;;;;;;;2.88;91.77;97876.30;1747623;82;20985;-73
2021/12/13 06:24:02;;;;;;;10.68;6.95;;;;;;;2.97;92.16;97879.76;1745685;82;20957;-73
2021/12/13 06:26:31;;;;;;;11.90;7.22;;;;;;;2.99;91.74;97886.73;1747269;82;20997;-73
2021/12/13 06:29:01;;;;;;;12.80;6.60;;;;;;;3.02;91.88;97893.72;1747252;80;21017;-73
2021/12/13 06:31:39;;;;;;;14.45;7.83;;;;;;;3.09;92.03;97892.86;1747096;82;20985;-74
2021/12/13 06:34:10;;;;;;;12.78;7.92;;;;;;;3.10;91.44;97893.70;1756770;82;21003;-73
2021/12/13 06:36:47;;;;;;;12.82;7.67;;;;;;;3.16;91.91;97897.66;1757571;82;20987;-73
2021/12/13 06:39:19;;;;;;;14.03;8.03;;;;;;;3.13;91.71;97902.45;1757341;82;21405;-74
2021/12/13 06:44:46;;;;;;;12.75;7.83;;;;;;;3.07;91.36;97898.97;1705612;84;21398;-73
2021/12/13 06:47:18;;;;;;;17.77;8.73;;;;;;;3.07;91.25;97910.75;1705606;84;21444;-73
2021/12/13 06:49:53;;;;;;;17.10;8.98;;;;;;;3.05;91.12;97906.82;1705090;84;20999;-72
2021/12/13 06:52:32;;;;;;;13.50;8.45;;;;;;;3.03;91.26;97909.86;1690269;84;21047;-73
2021/12/13 06:55:06;;;;;;;15.20;9.15;;;;;;;3.03;90.88;97909.86;1681883;83;21039;-73
2021/12/13 06:57:41;;;;;;;15.88;8.80;;;;;;;3.00;90.88;97913.80;1677355;85;21075;-73
2021/12/13 07:00:16;;;;;;;13.75;8.83;;;;;;;2.97;90.84;97919.03;1677868;84;21062;-73
2021/12/13 07:02:57;;;;;;;14.50;9.05;;;;;;;2.94;90.40;97922.52;1689406;84;21052;-73
2021/12/13 07:05:29;;;;;;;15.18;8.78;;;;;;;2.92;90.78;97926.02;1683406;84;21007;-73
2021/12/13 07:08:25;;;;;;;15.28;8.95;;;;;;;2.90;90.87;97933.86;1685616;84;22180;-73
2021/12/13 07:11:03;;;;;;;15.93;8.93;;;;;;;2.87;90.87;97936.05;1692216;84;21026;-76
2021/12/13 07:13:35;;;;;;;16.90;9.00;;;;;;;2.85;90.71;97942.15;1686137;84;21057;-77
2021/12/13 07:16:25;;;;;;;20.37;10.32;;;;;;;2.80;90.59;97946.09;1689381;84;21053;-77
2021/12/13 07:19:03;;;;;;;20.48;10.90;;;;;;;2.79;90.55;97951.31;1700721;84;21033;-76
2021/12/13 07:21:49;;;;;;;19.92;10.80;;;;;;;2.73;90.64;97951.75;1699194;84;21061;-76
2021/12/13 07:24:42;;;;;;;18.87;11.00;;;;;;;2.72;90.80;97956.97;1699803;84;20959;-77
2021/12/13 07:27:16;;;;;;;20.95;10.03;;;;;;;2.69;90.72;97956.98;1696830;84;21129;-76
2021/12/13 07:29:56;;;;;;;16.70;9.45;;;;;;;2.64;90.44;97960.89;1701826;84;20991;-77
2021/12/13 07:32:40;;;;;;;18.42;9.43;;;;;;;2.60;90.54;97951.28;1689782;84;21031;-77
2021/12/13 07:35:21;;;;;;;17.07;9.98;;;;;;;2.59;90.82;97957.39;1690433;83;21019;-76
2021/12/13 07:38:01;;;;;;;17.85;9.43;;;;;;;2.59;90.99;97963.52;1686065;84;20991;-75
2021/12/13 07:40:53;;;;;;;16.65;8.83;;;;;;;2.60;90.90;97957.83;1701320;84;20959;-76
2021/12/13 07:43:26;;;;;;;14.60;8.03;;;;;;;2.57;90.97;97961.77;1714772;82;21386;-75
2021/12/13 07:46:08;;;;;;;14.40;7.85;;;;;;;2.54;90.64;97961.75;1746060;81;21048;-75
2021/12/13 07:48:47;;;;;;;14.55;8.25;;;;;;;2.47;90.75;97966.09;1754503;81;20989;-74
2021/12/13 07:51:37;;;;;;;14.43;8.38;;;;;;;2.45;91.30;97966.08;1747644;82;21001;-78
2021/12/13 07:54:13;;;;;;;13.25;8.30;;;;;;;2.43;90.28;97969.14;1745080;81;20993;-79
2021/12/13 07:56:53;;;;;;;16.32;8.98;;;;;;;2.41;90.60;97965.63;1744773;82;21499;-79
2021/12/13 07:59:30;;;;;;;15.05;8.20;;;;;;;2.51;91.13;97970.46;1745289;82;20996;-78
2021/12/13 08:02:08;;;;;;;14.50;7.87;;;;;;;2.54;90.62;97973.09;1753362;82;21043;-77
2021/12/13 08:04:52;;;;;;;14.35;7.58;;;;;;;2.63;91.06;97973.55;1760332;81;21416;-77
2021/12/13 08:07:34;;;;;;;13.90;8.20;;;;;;;2.66;89.72;97975.29;1771594;81;21003;-77
2021/12/13 08:10:13;;;;;;;17.77;9.03;;;;;;;2.67;89.52;97973.99;1770632;81;20987;-77
2021/12/13 08:12:45;;;;;;;16.00;8.48;;;;;;;2.70;88.89;97984.90;1771781;81;21003;-77
2021/12/13 08:15:23;;;;;;;16.05;9.03;;;;;;;2.70;89.06;97989.67;1769645;81;21157;-77
2021/12/13 08:18:22;;;;;;;14.93;8.70;;;;;;;2.67;89.04;97989.70;1780981;80;21371;-80
2021/12/13 08:20:54;;;;;;;14.73;8.75;;;;;;;2.72;89.69;97994.50;1787728;80;20985;-78
2021/12/13 08:23:35;;;;;;;14.03;8.00;;;;;;;2.69;88.71;97988.39;1787402;80;21044;-79
2021/12/13 08:26:06;;;;;;;15.98;9.48;;;;;;;2.71;88.41;97999.72;1732953;82;20949;-79
2021/12/13 08:28:47;;;;;;;16.70;9.25;;;;;;;2.72;89.51;97997.12;1746692;81;21044;-77
2021/12/13 08:31:29;;;;;;;16.05;9.73;;;;;;;2.76;89.54;97992.33;1746605;81;21031;-77
2021/12/13 08:34:01;;;;;;;18.60;9.70;;;;;;;2.75;89.04;97997.10;1747733;82;21382;-77
2021/12/13 08:36:41;;;;;;;18.17;9.10;;;;;;;2.83;89.54;97996.26;1747152;82;21000;-77
2021/12/13 08:39:19;;;;;;;19.67;10.05;;;;;;;2.83;88.93;98002.34;1747965;82;20997;-77
2021/12/13 08:41:56;;;;;;;19.57;10.15;;;;;;;2.80;88.62;98003.67;1755819;82;21005;-77
2021/12/13 08:44:34;;;;;;;19.95;10.48;;;;;;;2.84;89.11;98006.73;1755709;82;21024;-77
2021/12/13 08:47:12;;;;;;;18.80;9.88;;;;;;;2.90;89.04;98011.09;1756425;82;21024;-77
2021/12/13 08:49:59;;;;;;;19.20;10.30;;;;;;;2.93;88.95;98001.94;1756511;82;21430;-77
2021/12/13 08:52:34;;;;;;;20.48;10.50;;;;;;;2.95;88.54;98002.80;1756433;82;20996;-78
2021/12/13 08:55:18;;;;;;;18.77;10.93;;;;;;;3.01;89.03;98004.56;1749370;82;20960;-77
2021/12/13 08:58:02;;;;;;;22.02;11.95;;;;;;;3.04;89.07;98001.51;1747758;82;20969;-77
2021/12/13 09:00:49;;;;;;;20.23;10.43;;;;;;;3.08;89.11;98002.83;1745183;82;21406;-77
2021/12/13 09:03:33;;;;;;;20.20;10.25;;;;;;;3.14;89.08;98005.44;1731185;82;21019;-77
2021/12/13 09:06:20;;;;;;;18.77;9.60;;;;;;;3.16;88.88;98011.58;1747786;82;20996;-77
2021/12/13 09:08:59;;;;;;;19.82;10.45;;;;;;;3.16;88.22;98005.03;1716280;82;20988;-77
2021/12/13 09:11:43;;;;;;;18.95;10.75;;;;;;;3.14;87.50;98003.70;1749107;81;20987;-77
2021/12/13 09:14:36;;;;;;;19.27;10.82;;;;;;;3.11;88.10;97996.30;1752798;82;21414;-77
2021/12/13 09:17:27;;;;;;;19.63;10.43;;;;;;;3.14;88.03;97992.34;1756615;82;21001;-77
2021/12/13 09:20:07;;;;;;;22.20;11.10;;;;;;;3.15;87.22;98002.83;1756376;82;20981;-77
2021/12/13 09:22:45;;;;;;;20.02;10.43;;;;;;;3.16;87.77;97997.17;1747924;82;21000;-77
2021/12/13 09:25:29;;;;;;;20.55;11.15;;;;;;;3.17;87.75;97991.05;1747986;82;20992;-77
2021/12/13 09:28:01;;;;;;;22.93;10.90;;;;;;;3.14;86.32;97991.92;1747326;81;22217;-77
2021/12/13 09:31:04;;;;;;;20.82;10.70;;;;;;;3.15;87.53;97981.87;1741527;82;20970;-76
2021/12/13 09:33:51;;;;;;;18.90;10.18;;;;;;;3.20;87.53;97989.72;1747775;82;21043;-77
2021/12/13 09:36:26;;;;;;;21.23;10.38;;;;;;;3.22;87.21;97989.30;1754010;82;21008;-77
2021/12/13 09:39:04;;;;;;;19.75;11.28;;;;;;;3.21;87.20;97990.61;1755442;82;21020;-77
2021/12/13 09:42:01;;;;;;;21.23;10.85;;;;;;;3.21;87.08;97987.98;1751714;82;21000;-77
2021/12/13 09:44:32;;;;;;;;;;;;;;;3.22;87.66;97984.48;1682318;85;21042;-77
2021/12/13 09:47:05;;;;;;;22.32;10.88;;;;;;;3.25;87.57;97985.38;1691098;85;20119;-77
2021/12/13 09:49:45;;;;;;;22.07;12.50;;;;;;;3.27;87.46;97991.48;1692967;85;21060;-77
2021/12/13 09:52:25;;;;;;;22.40;11.38;;;;;;;3.26;87.08;97988.86;1740723;82;21477;-77
2021/12/13 09:55:00;;;;;;;23.75;12.30;;;;;;;3.27;87.54;97991.48;1755618;82;21012;-77
2021/12/13 09:57:32;;;;;;;23.47;12.33;;;;;;;3.29;87.68;97988.41;1754406;82;21016;-77
2021/12/13 10:00:01;;;;;;;26.23;12.15;;;;;;;3.29;86.79;97988.87;1755759;82;21036;-77
2021/12/13 10:02:36;;;;;;;27.27;13.50;;;;;;;3.23;86.72;97985.80;1751580;82;20996;-77
2021/12/13 10:05:09;;;;;;;24.63;12.68;;;;;;;3.20;86.33;97993.65;1752742;81;20925;-77
2021/12/13 10:07:39;;;;;;;26.85;12.65;;;;;;;3.17;86.69;97986.66;1747796;81;20993;-76
2021/12/13 10:10:17;;;;;;;26.52;13.75;;;;;;;3.14;86.66;97991.92;1747638;81;21043;-77
2021/12/13 10:12:57;;;;;;;32.70;14.20;;;;;;;3.15;86.78;97984.92;1747483;81;21000;-77
2021/12/13 10:15:32;;;;;;;29.02;14.10;;;;;;;3.15;86.79;97987.12;1747436;81;20989;-77
2021/12/13 10:18:04;;;;;;;27.90;14.30;;;;;;;3.09;86.68;97984.93;1747523;81;21027;-77
2021/12/13 10:20:36;;;;;;;28.25;15.18;;;;;;;3.10;86.62;97985.36;1751774;81;21323;-77
2021/12/13 10:23:07;;;;;;;27.77;14.00;;;;;;;3.14;86.81;97992.34;1755824;81;21481;-77
2021/12/13 10:25:38;;;;;;;25.45;13.45;;;;;;;3.19;87.03;97981.44;1755829;82;21000;-77
2021/12/13 10:28:10;;;;;;;23.98;13.80;;;;;;;3.30;87.27;97982.33;1755259;82;21430;-77
2021/12/13 10:30:42;;;;;;;26.25;13.58;;;;;;;3.37;87.42;97975.30;1755814;82;21066;-76
2021/12/13 10:33:09;;;;;;;25.35;13.25;;;;;;;3.46;87.40;97986.66;1755746;82;21071;-77
2021/12/13 10:35:40;;;;;;;27.20;12.78;;;;;;;3.54;87.61;97983.61;1755783;82;21028;-76
2021/12/13 10:38:12;;;;;;;22.10;11.65;;;;;;;3.68;87.96;97987.50;1750570;82;20969;-77
2021/12/13 10:40:56;;;;;;;26.27;11.53;;;;;;;3.85;87.85;97986.61;1755727;82;21422;-77
2021/12/13 10:43:31;;;;;;;23.00;11.80;;;;;;;3.94;86.79;97986.13;1756198;81;20953;-76
2021/12/13 10:46:03;;;;;;;41.92;20.50;;;;;;;4.03;87.83;97985.67;1756492;82;21430;-77
2021/12/13 10:48:33;;;;;;;25.20;12.23;;;;;;;4.09;87.53;97979.97;1756012;82;21021;-77
2021/12/13 10:51:10;;;;;;;24.90;12.45;;;;;;;4.19;87.68;97976.01;1756127;82;20972;-77
2021/12/13 10:53:40;;;;;;;22.73;10.88;;;;;;;4.17;84.64;97973.81;1754108;82;21047;-77
2021/12/13 10:56:15;;;;;;;20.82;10.95;;;;;;;4.08;85.51;97974.27;1752569;82;21018;-77
2021/12/13 10:58:47;;;;;;;19.82;11.00;;;;;;;3.98;83.85;97979.58;1755589;82;21477;-77
2021/12/13 11:01:23;;;;;;;21.52;11.45;;;;;;;3.75;82.44;97985.32;1755685;82;20969;-77
2021/12/13 11:03:52;;;;;;;21.90;11.28;;;;;;;3.51;83.06;97979.67;1751741;82;20973;-77
2021/12/13 11:06:22;;;;;;;22.80;11.20;;;;;;;3.50;84.31;97976.62;1756301;82;20996;-77
2021/12/13 11:08:50;;;;;;;21.05;10.98;;;;;;;3.31;83.33;97977.94;1753588;82;20949;-77
2021/12/13 11:11:25;;;;;;;24.32;10.90;;;;;;;3.31;84.11;97977.94;1747673;81;20996;-77
2021/12/13 11:13:56;;;;;;;22.13;11.25;;;;;;;3.29;84.84;97975.77;1753917;82;21469;-77
2021/12/13 11:16:31;;;;;;;24.23;11.22;;;;;;;3.25;84.68;97984.50;1755388;82;20997;-77
2021/12/13 11:18:58;;;;;;;24.55;11.48;;;;;;;3.21;84.80;97987.56;1755423;82;21048;-77
2021/12/13 11:21:30;;;;;;;24.25;12.13;;;;;;;3.05;85.23;97989.30;1755960;82;20941;-76
2021/12/13 11:23:58;;;;;;;23.40;11.25;;;;;;;3.03;85.13;97985.78;1756303;82;21020;-76
2021/12/13 11:26:29;;;;;;;24.87;13.05;;;;;;;2.94;85.66;97981.42;1755846;82;20969;-76
2021/12/13 11:28:56;;;;;;;31.48;13.05;;;;;;;2.96;85.87;97980.13;1726479;83;21028;-78
2021/12/13 11:31:36;;;;;;;26.00;12.40;;;;;;;3.02;86.00;97977.50;1726520;83;21080;-77
2021/12/13 11:34:20;;;;;;;23.38;12.30;;;;;;;3.06;86.12;97974.47;1730014;82;21080;-78
2021/12/13 11:37:42;;;;;;;25.88;11.90;;;;;;;3.09;85.84;97977.95;1755096;80;21016;-77
2021/12/13 11:40:40;;;;;;;24.00;12.07;;;;;;;3.10;86.01;97974.46;1751766;82;20977;-78
2021/12/13 11:43:37;;;;;;;24.10;11.08;;;;;;;3.01;85.29;97976.65;1754974;82;21442;-78
2021/12/13 11:46:44;;;;;;;27.37;12.73;;;;;;;3.02;86.00;97974.89;1755103;82;21095;-77
2021/12/13 11:49:45;;;;;;;24.47;13.53;;;;;;;3.08;86.23;97974.02;1752296;82;20962;-78
2021/12/13 11:52:53;;;;;;;22.65;12.28;;;;;;;3.15;86.54;97979.69;1753314;82;20957;-77
2021/12/13 11:55:49;;;;;;;29.40;14.28;;;;;;;3.16;85.57;97972.29;1753981;82;20988;-77
2021/12/13 11:59:01;;;;;;;30.05;14.80;;;;;;;3.17;86.56;97974.03;1754625;82;21337;-77
2021/12/13 12:01:53;;;;;;;27.82;14.20;;;;;;;3.20;86.47;97975.31;1753070;82;21024;-78
2021/12/13 12:05:14;;;;;;;31.10;14.65;;;;;;;3.21;86.03;97980.13;1752486;82;21040;-78
2021/12/13 12:08:11;;;;;;;31.52;14.90;;;;;;;3.21;86.53;97981.44;1753335;82;21374;-77
2021/12/13 12:10:52;;;;;;;29.55;14.83;;;;;;;3.22;86.42;97987.11;1750955;82;21433;-78
2021/12/13 12:14:05;;;;;;;33.15;14.90;;;;;;;3.22;86.29;97982.75;1752608;82;20996;-77
2021/12/13 12:16:35;;;;;;;30.27;14.60;;;;;;;3.21;86.56;97978.40;1754389;82;21028;-78
2021/12/13 12:19:21;;;;;;;30.37;14.60;;;;;;;3.23;86.54;97985.80;1750247;82;21108;-78
2021/12/13 12:22:07;;;;;;;29.90;14.45;;;;;;;3.21;86.05;97984.06;1753444;82;20988;-78
2021/12/13 12:24:39;;;;;;;26.95;13.18;;;;;;;3.19;86.43;97982.74;1755431;82;20961;-78
2021/12/13 12:27:28;;;;;;;27.27;13.15;;;;;;;3.20;86.60;97991.03;1755578;82;21426;-78
2021/12/13 12:30:00;;;;;;;28.50;13.78;;;;;;;3.23;86.34;97987.11;1728397;82;21402;-78
2021/12/13 12:32:35;;;;;;;29.05;13.83;;;;;;;3.20;85.92;97992.34;1754936;82;21470;-78